Time;durP1;ratioP1;P1;durP2;ratioP2;P2;SDS_P1;SDS_P2;PMS_P1;PMS_P2;Temp;Humidity;BMP_temperature;BMP_pressure;BME280_temperature;BME280_humidity;BME280_pressure;Samples;Min_cycle;Max_cycle;Signal;HPM_P1;HPM_P2
2023/02/20 10:12:07;;;;;;;12.50;11.60;;;21.70;64.70;;;;;;5126745;27;20571;-75
2023/02/20 10:15:02;;;;;;;11.67;10.97;;;20.10;68.20;;;;;;5127127;27;20449;-75
2023/02/20 10:17:40;;;;;;;12.00;11.30;;;19.80;68.40;;;;;;5127250;27;20441;-75
2023/02/20 10:20:13;;;;;;;12.13;11.27;;;19.60;68.70;;;;;;5126794;27;20440;-76
2023/02/20 10:22:49;;;;;;;10.50;10.03;;;20.00;69.10;;;;;;5126809;27;21138;-77
2023/02/20 10:25:21;;;;;;;11.93;11.20;;;20.40;66.90;;;;;;5127278;27;20547;-75
2023/02/20 10:27:54;;;;;;;11.30;10.80;;;20.90;65.90;;;;;;5126891;27;20445;-75
2023/02/20 10:30:27;;;;;;;12.10;11.50;;;20.40;67.00;;;;;;5126786;27;20484;-76
2023/02/20 10:32:59;;;;;;;11.63;11.13;;;20.60;66.80;;;;;;5126678;27;20452;-77
2023/02/20 10:35:32;;;;;;;12.70;12.10;;;21.70;65.00;;;;;;5126738;27;20459;-77
2023/02/20 10:38:06;;;;;;;13.43;12.70;;;22.50;62.10;;;;;;5126834;27;20459;-74
2023/02/20 10:40:39;;;;;;;13.73;12.90;;;23.40;60.50;;;;;;5126650;27;20446;-76
2023/02/20 10:43:14;;;;;;;12.83;12.23;;;24.20;58.40;;;;;;5126657;27;20954;-76
2023/02/20 10:45:49;;;;;;;13.60;12.93;;;25.00;57.60;;;;;;5126337;27;20436;-76
2023/02/20 10:48:16;;;;;;;13.87;13.00;;;25.90;54.20;;;;;;5126811;27;20463;-76
2023/02/20 10:50:50;;;;;;;12.20;11.70;;;25.90;52.50;;;;;;5126425;27;20476;-76
2023/02/20 10:53:26;;;;;;;13.43;12.53;;;25.90;52.10;;;;;;5126461;27;20825;-76
2023/02/20 10:56:00;;;;;;;12.70;12.00;;;25.50;52.30;;;;;;5126483;27;20566;-76
2023/02/20 10:58:36;;;;;;;13.20;12.60;;;26.00;51.70;;;;;;5126332;27;20440;-75
2023/02/20 11:01:05;;;;;;;13.43;12.73;;;26.60;51.20;;;;;;5126427;27;20444;-75
2023/02/20 11:03:41;;;;;;;12.73;12.07;;;26.60;50.00;;;;;;5126588;27;20460;-76
2023/02/20 11:06:11;;;;;;;12.40;11.70;;;26.20;50.20;;;;;;5126156;27;20521;-75
2023/02/20 11:08:38;;;;;;;11.33;10.87;;;26.00;50.10;;;;;;5105457;28;21141;-75
2023/02/20 11:11:21;;;;;;;12.20;11.70;;;26.80;48.80;;;;;;5101592;28;21040;-76
2023/02/20 11:13:49;;;;;;;13.20;12.50;;;27.10;47.70;;;;;;5092111;28;20442;-76
2023/02/20 11:16:24;;;;;;;14.93;14.03;;;27.20;47.30;;;;;;5092118;28;20450;-76
2023/02/20 11:18:56;;;;;;;14.10;13.33;;;27.40;47.60;;;;;;5091759;28;20782;-76
2023/02/20 11:21:39;;;;;;;14.40;13.40;;;26.70;47.10;;;;;;5091687;28;20439;-75
2023/02/20 11:24:25;;;;;;;12.83;12.13;;;26.40;48.90;;;;;;5091734;28;20449;-76
2023/02/20 11:26:57;;;;;;;13.30;12.60;;;26.50;47.70;;;;;;5080857;28;20963;-76
2023/02/20 11:29:29;;;;;;;14.27;13.67;;;26.10;48.00;;;;;;5091567;28;20469;-75
2023/02/20 11:31:56;;;;;;;12.10;11.60;;;26.20;48.20;;;;;;5091543;28;20442;-76
2023/02/20 11:34:32;;;;;;;12.80;12.20;;;25.90;49.10;;;;;;5091409;28;20648;-76
2023/02/20 11:37:06;;;;;;;13.73;13.07;;;26.70;47.50;;;;;;5091612;28;20442;-76
2023/02/20 11:39:34;;;;;;;12.70;12.10;;;26.20;48.10;;;;;;5091604;28;20499;-75
2023/02/20 11:42:09;;;;;;;12.20;11.40;;;26.10;47.40;;;;;;5091509;28;20454;-76
2023/02/20 11:44:38;;;;;;;13.63;13.03;;;26.70;47.10;;;;;;5091115;28;20457;-76
2023/02/20 11:47:23;;;;;;;13.80;13.00;;;26.80;46.10;;;;;;5091401;28;20431;-76
2023/02/20 11:49:50;;;;;;;12.00;11.47;;;27.00;46.40;;;;;;5091356;28;20454;-75
2023/02/20 11:52:19;;;;;;;12.70;11.97;;;26.80;45.90;;;;;;5091427;28;20560;-76
2023/02/20 11:54:46;;;;;;;11.90;11.23;;;26.30;46.60;;;;;;5091491;28;20769;-75
2023/02/20 11:57:22;;;;;;;13.17;12.57;;;26.20;47.50;;;;;;5091177;28;20458;-75
2023/02/20 11:59:51;;;;;;;13.47;12.53;;;26.10;47.40;;;;;;5091242;28;20820;-76
2023/02/20 12:02:27;;;;;;;12.20;11.70;;;26.80;45.90;;;;;;5091011;28;20846;-77
2023/02/20 12:05:11;;;;;;;12.70;12.00;;;26.60;46.20;;;;;;5091017;28;20438;-76
2023/02/20 12:07:41;;;;;;;13.30;12.50;;;27.00;45.00;;;;;;5090708;28;20466;-76
2023/02/20 12:10:28;;;;;;;12.90;12.30;;;26.70;45.20;;;;;;5090566;28;20784;-77
2023/02/20 12:12:55;;;;;;;14.00;13.10;;;26.60;45.50;;;;;;5090727;28;20450;-77
2023/02/20 12:15:25;;;;;;;13.07;12.07;;;27.00;46.00;;;;;;5090759;28;20534;-76
2023/02/20 12:18:20;;;;;;;12.83;12.10;;;27.00;45.40;;;;;;5090445;28;20449;-76
2023/02/20 12:20:52;;;;;;;13.67;12.97;;;27.70;44.80;;;;;;5090959;28;20449;-76
2023/02/20 12:23:28;;;;;;;13.67;12.97;;;28.30;44.00;;;;;;5089605;28;20451;-77
2023/02/20 12:26:06;;;;;;;12.80;12.00;;;29.20;42.30;;;;;;5090623;28;20457;-76
2023/02/20 12:28:41;;;;;;;13.83;12.97;;;29.20;42.10;;;;;;5090199;28;20952;-77
2023/02/20 12:31:22;;;;;;;13.37;12.47;;;29.60;41.70;;;;;;5090227;28;20482;-75
2023/02/20 12:34:10;;;;;;;13.00;12.50;;;29.00;41.90;;;;;;5090439;28;20457;-74
2023/02/20 12:36:39;;;;;;;13.20;12.60;;;30.00;41.00;;;;;;5090358;28;20457;-75
2023/02/20 12:39:14;;;;;;;13.00;12.40;;;30.10;40.00;;;;;;5090138;28;20454;-75
2023/02/20 12:42:00;;;;;;;12.30;11.80;;;28.80;40.60;;;;;;5090198;28;20438;-75
2023/02/20 12:44:53;;;;;;;14.27;13.60;;;28.20;42.00;;;;;;5090061;28;20955;-74
2023/02/20 12:47:29;;;;;;;13.37;12.77;;;27.50;42.70;;;;;;5090149;28;20461;-75
2023/02/20 12:50:13;;;;;;;12.70;12.10;;;27.70;42.30;;;;;;5089924;28;20445;-76
2023/02/20 12:52:52;;;;;;;11.73;11.13;;;28.50;41.00;;;;;;5089888;28;21171;-76
2023/02/20 12:55:26;;;;;;;11.13;10.63;;;28.10;41.20;;;;;;5090059;28;20457;-75
2023/02/20 12:58:07;;;;;;;12.07;11.37;;;28.10;41.50;;;;;;5089870;28;21121;-76
2023/02/20 13:00:39;;;;;;;12.63;11.97;;;28.20;41.10;;;;;;5090080;28;20449;-76
2023/02/20 13:03:11;;;;;;;11.80;11.20;;;27.20;42.40;;;;;;5089727;28;20446;-77
2023/02/20 13:05:42;;;;;;;12.60;11.80;;;26.80;42.30;;;;;;5089548;28;20481;-75
2023/02/20 13:08:14;;;;;;;12.00;11.40;;;26.20;42.90;;;;;;5089521;28;20470;-74
2023/02/20 13:10:50;;;;;;;12.07;11.47;;;25.70;42.90;;;;;;5089303;28;20903;-76
2023/02/20 13:13:17;;;;;;;11.40;10.90;;;25.00;44.00;;;;;;5089753;28;20442;-76
2023/02/20 13:15:54;;;;;;;12.93;11.87;;;25.10;44.20;;;;;;5089630;28;20469;-76
2023/02/20 13:18:28;;;;;;;11.53;10.83;;;25.00;43.90;;;;;;5089459;28;20971;-75
2023/02/20 13:20:58;;;;;;;11.40;10.80;;;24.70;44.90;;;;;;5089703;28;20790;-76
2023/02/20 13:23:31;;;;;;;10.17;9.67;;;25.00;44.50;;;;;;5089537;28;20442;-76
2023/02/20 13:25:58;;;;;;;10.50;10.00;;;24.70;44.70;;;;;;5089356;28;20458;-77
2023/02/20 13:28:41;;;;;;;10.63;10.13;;;24.50;44.80;;;;;;5089869;28;20446;-75
2023/02/20 13:31:19;;;;;;;11.33;10.67;;;24.90;44.50;;;;;;5089179;28;20867;-76
2023/02/20 13:33:50;;;;;;;12.70;12.00;;;24.90;44.00;;;;;;5089307;28;20446;-74
2023/02/20 13:36:33;;;;;;;12.10;11.57;;;25.30;43.80;;;;;;5089472;28;20442;-76
2023/02/20 13:39:46;;;;;;;11.73;11.10;;;24.80;44.00;;;;;;5086868;28;20457;-75
2023/02/20 13:42:27;;;;;;;11.10;10.50;;;23.60;44.70;;;;;;5089176;28;20442;-75
2023/02/20 13:44:55;;;;;;;11.30;10.80;;;22.00;46.70;;;;;;5089096;28;20452;-74
2023/02/20 13:47:39;;;;;;;11.47;10.60;;;20.60;49.70;;;;;;5088984;28;20557;-73
2023/02/20 13:50:33;;;;;;;11.47;10.77;;;19.90;51.10;;;;;;5089361;28;20465;-74
2023/02/20 13:53:03;;;;;;;10.40;10.00;;;19.10;52.30;;;;;;5089211;28;20959;-75
2023/02/20 13:55:31;;;;;;;9.33;8.80;;;18.50;53.10;;;;;;5089192;28;20453;-75
2023/02/20 13:58:03;;;;;;;10.27;9.77;;;18.10;53.70;;;;;;5089107;28;20818;-75
2023/02/20 14:00:40;;;;;;;9.33;9.03;;;18.00;53.90;;;;;;5089176;28;21001;-75
2023/02/20 14:03:12;;;;;;;10.00;9.30;;;17.90;54.00;;;;;;5088915;28;20941;-74
2023/02/20 14:05:40;;;;;;;10.60;10.20;;;17.70;53.80;;;;;;5088959;28;20527;-74
2023/02/20 14:08:15;;;;;;;10.40;9.90;;;17.80;53.70;;;;;;5088938;28;20469;-74
2023/02/20 14:10:46;;;;;;;10.63;10.20;;;17.70;53.30;;;;;;5088673;28;20861;-75
2023/02/20 14:13:15;;;;;;;10.10;9.50;;;17.60;53.50;;;;;;5089739;28;20454;-75
2023/02/20 14:15:48;;;;;;;9.93;9.53;;;17.70;54.00;;;;;;5089355;28;20907;-74
2023/02/20 14:18:20;;;;;;;9.57;9.00;;;17.70;53.10;;;;;;5089220;28;20449;-75
2023/02/20 14:20:49;;;;;;;10.93;10.43;;;17.70;52.40;;;;;;5089356;28;20446;-75
2023/02/20 14:23:22;;;;;;;9.10;8.50;;;17.70;51.30;;;;;;5089056;28;20956;-76
2023/02/20 14:26:00;;;;;;;9.37;9.07;;;17.70;50.00;;;;;;5088837;28;20936;-75
2023/02/20 14:28:27;;;;;;;10.47;9.93;;;17.70;50.30;;;;;;5088443;28;20450;-75
2023/02/20 14:31:06;;;;;;;9.43;9.03;;;17.70;49.10;;;;;;5088582;28;20482;-74
2023/02/20 14:33:33;;;;;;;9.93;8.90;;;17.80;48.30;;;;;;5088974;28;20795;-75
2023/02/20 14:36:19;;;;;;;9.00;8.60;;;17.80;46.60;;;;;;5088949;28;20446;-74
2023/02/20 14:39:03;;;;;;;8.73;8.40;;;17.80;47.40;;;;;;5088896;28;20454;-74
2023/02/20 14:41:31;;;;;;;10.80;10.30;;;17.70;47.50;;;;;;5088828;28;20449;-74
2023/02/20 14:44:00;;;;;;;11.10;10.70;;;17.70;46.70;;;;;;5088462;28;20493;-74
2023/02/20 14:46:28;;;;;;;9.33;8.93;;;17.70;46.90;;;;;;5089211;28;20944;-75
2023/02/20 14:49:07;;;;;;;11.20;10.40;;;17.60;47.20;;;;;;5092257;28;20453;-75
2023/02/20 14:51:36;;;;;;;11.77;10.30;;;17.50;48.60;;;;;;5092237;28;20493;-74
2023/02/20 14:54:16;;;;;;;11.00;10.30;;;17.40;54.50;;;;;;5092886;28;20454;-76
2023/02/20 14:56:44;;;;;;;10.40;9.80;;;17.20;56.90;;;;;;5092254;28;20499;-74
2023/02/20 14:59:25;;;;;;;10.27;9.53;;;17.10;57.30;;;;;;5092177;28;20449;-75
2023/02/20 15:01:53;;;;;;;10.57;9.97;;;17.00;56.00;;;;;;5092026;28;20518;-75
2023/02/20 15:04:22;;;;;;;13.10;12.43;;;17.00;55.20;;;;;;5092156;28;20453;-75
2023/02/20 15:06:51;;;;;;;10.00;9.60;;;16.90;55.40;;;;;;5091953;28;20995;-75
2023/02/20 15:09:19;;;;;;;10.70;10.07;;;16.80;55.30;;;;;;5092169;28;20934;-75
2023/02/20 15:11:49;;;;;;;9.80;9.47;;;16.80;54.80;;;;;;5091973;28;20497;-75
2023/02/20 15:14:22;;;;;;;9.30;8.80;;;16.70;54.40;;;;;;5092446;28;20449;-75
2023/02/20 15:16:48;;;;;;;10.17;9.57;;;16.60;54.50;;;;;;5092121;28;20521;-75
2023/02/20 15:19:32;;;;;;;9.37;8.97;;;16.60;54.50;;;;;;5091936;28;20450;-75
2023/02/20 15:22:00;;;;;;;9.67;9.10;;;16.50;54.50;;;;;;5091765;28;20802;-75
2023/02/20 15:24:37;;;;;;;10.60;9.80;;;16.50;55.40;;;;;;5091499;28;20945;-75
2023/02/20 15:27:10;;;;;;;11.20;10.60;;;16.40;56.80;;;;;;5091653;28;20964;-74
2023/02/20 15:29:36;;;;;;;10.40;9.57;;;16.40;57.50;;;;;;5091556;28;20461;-74
2023/02/20 15:32:05;;;;;;;10.03;9.53;;;16.30;57.80;;;;;;5091588;28;20478;-74
2023/02/20 15:34:35;;;;;;;10.53;9.93;;;16.30;57.20;;;;;;5091772;28;20532;-74
2023/02/20 15:37:18;;;;;;;10.43;9.97;;;16.30;57.00;;;;;;5091508;28;20457;-74
2023/02/20 15:39:47;;;;;;;10.47;9.87;;;16.20;56.70;;;;;;5091617;28;20477;-75
2023/02/20 15:42:14;;;;;;;9.80;9.37;;;16.20;56.40;;;;;;5091376;28;20813;-75
2023/02/20 15:44:41;;;;;;;8.83;8.40;;;16.20;55.30;;;;;;5091350;28;20814;-74
2023/02/20 15:47:08;;;;;;;10.73;10.23;;;16.10;55.30;;;;;;5091145;28;20458;-75
2023/02/20 15:49:35;;;;;;;10.03;9.63;;;16.00;56.50;;;;;;5091193;28;20473;-75
2023/02/20 15:52:04;;;;;;;10.20;9.70;;;16.00;57.20;;;;;;5091219;28;20474;-75
2023/02/20 15:54:31;;;;;;;11.47;10.57;;;15.90;59.20;;;;;;5091257;28;20450;-75
2023/02/20 15:56:57;;;;;;;10.70;10.20;;;15.80;60.20;;;;;;5090983;28;20446;-74
2023/02/20 15:59:24;;;;;;;10.90;10.00;;;15.60;61.20;;;;;;5090972;28;20450;-75
2023/02/20 16:01:51;;;;;;;10.63;10.10;;;15.50;62.60;;;;;;5090940;28;20533;-74
2023/02/20 16:04:18;;;;;;;10.70;9.90;;;15.40;63.30;;;;;;5091103;28;20457;-74
2023/02/20 16:06:45;;;;;;;12.10;10.90;;;15.30;64.30;;;;;;5090733;28;20474;-74
2023/02/20 16:09:14;;;;;;;9.80;9.40;;;15.20;66.80;;;;;;5090887;28;20447;-74
2023/02/20 16:11:42;;;;;;;11.00;10.33;;;15.00;66.30;;;;;;5090593;28;20493;-74
2023/02/20 16:14:12;;;;;;;10.23;9.83;;;14.90;67.90;;;;;;5090897;28;20796;-75
2023/02/20 16:16:41;;;;;;;11.10;10.60;;;14.80;67.30;;;;;;5090614;28;20446;-74
2023/02/20 16:19:14;;;;;;;10.97;10.30;;;14.70;68.40;;;;;;5090734;28;20601;-74
2023/02/20 16:21:41;;;;;;;10.57;9.83;;;14.70;67.80;;;;;;5090625;28;20455;-74
2023/02/20 16:24:08;;;;;;;11.87;11.07;;;14.60;68.40;;;;;;5090553;28;20733;-74
2023/02/20 16:26:36;;;;;;;11.00;10.50;;;14.50;69.10;;;;;;5090446;28;20459;-74
2023/02/20 16:29:06;;;;;;;11.37;10.57;;;14.40;70.20;;;;;;5090722;28;20824;-74
2023/02/20 16:32:07;;;;;;;10.23;9.63;;;14.20;70.90;;;;;;5090414;28;20481;-73
2023/02/20 16:34:34;;;;;;;9.93;9.23;;;14.10;71.60;;;;;;5090519;28;20446;-74
2023/02/20 16:37:01;;;;;;;10.87;10.27;;;14.00;72.40;;;;;;5090364;28;20984;-75
2023/02/20 16:39:28;;;;;;;10.33;9.60;;;13.90;72.70;;;;;;5090297;28;20442;-73
2023/02/20 16:41:57;;;;;;;10.00;9.30;;;13.80;73.50;;;;;;5090131;28;20465;-74
2023/02/20 16:44:30;;;;;;;10.13;9.53;;;13.70;74.20;;;;;;5090123;28;20861;-74
2023/02/20 16:46:56;;;;;;;12.90;12.10;;;13.60;75.10;;;;;;5090045;28;20454;-74
2023/02/20 16:49:23;;;;;;;10.47;10.00;;;13.50;76.20;;;;;;5089808;28;20449;-74
2023/02/20 16:51:58;;;;;;;11.10;10.50;;;13.40;76.80;;;;;;5089924;28;20494;-73
2023/02/20 16:54:24;;;;;;;11.53;10.90;;;13.20;78.70;;;;;;5090032;28;20719;-74
2023/02/20 16:56:51;;;;;;;11.57;10.97;;;13.00;79.90;;;;;;5089812;28;20447;-74
2023/02/20 16:59:21;;;;;;;10.40;9.90;;;12.70;81.20;;;;;;5090046;28;20449;-74
2023/02/20 17:01:48;;;;;;;9.90;9.47;;;12.50;83.30;;;;;;5090634;28;20447;-74
2023/02/20 17:04:16;;;;;;;12.43;11.53;;;12.40;87.30;;;;;;5090180;28;20446;-75
2023/02/20 17:06:43;;;;;;;11.10;10.40;;;12.30;87.30;;;;;;5089867;28;20469;-73
2023/02/20 17:09:09;;;;;;;11.47;10.73;;;12.20;86.20;;;;;;5089465;28;20466;-73
2023/02/20 17:11:36;;;;;;;11.30;10.60;;;12.00;86.30;;;;;;5089328;28;20490;-74
2023/02/20 17:14:03;;;;;;;10.03;9.33;;;11.80;87.60;;;;;;5089851;28;20442;-74
2023/02/20 17:16:31;;;;;;;10.97;10.20;;;11.60;89.70;;;;;;5091209;28;20457;-73
2023/02/20 17:18:57;;;;;;;9.87;9.27;;;11.40;91.20;;;;;;5089877;28;20453;-73
2023/02/20 17:21:24;;;;;;;10.67;9.97;;;11.30;92.10;;;;;;5089551;28;20461;-74
2023/02/20 17:23:51;;;;;;;11.23;10.10;;;11.10;93.60;;;;;;5089372;28;20958;-73
2023/02/20 17:26:18;;;;;;;12.50;11.77;;;11.00;95.00;;;;;;5089644;28;20450;-73
2023/02/20 17:28:44;;;;;;;15.17;12.50;;;11.00;95.90;;;;;;5089527;28;20523;-73
2023/02/20 17:31:11;;;;;;;20.40;14.07;;;10.90;95.90;;;;;;5089253;28;20448;-73
2023/02/20 17:33:40;;;;;;;13.93;12.23;;;10.70;95.30;;;;;;5089179;28;21128;-74
2023/02/20 17:36:07;;;;;;;16.37;12.73;;;10.70;95.60;;;;;;5089031;28;20459;-73
2023/02/20 17:38:34;;;;;;;14.30;12.87;;;10.60;96.10;;;;;;5089327;28;20458;-73
2023/02/20 17:41:01;;;;;;;12.67;11.57;;;10.50;98.90;;;;;;5089522;28;20856;-73
2023/02/20 17:43:28;;;;;;;14.67;13.63;;;10.30;99.10;;;;;;5089060;28;20446;-73
2023/02/20 17:45:54;;;;;;;15.23;14.13;;;10.20;99.90;;;;;;5089062;28;20474;-75
2023/02/20 17:48:21;;;;;;;16.33;14.40;;;10.10;99.90;;;;;;5089132;28;20455;-73
2023/02/20 17:50:49;;;;;;;14.27;12.83;;;9.90;99.90;;;;;;5089292;28;20940;-74
2023/02/20 17:53:16;;;;;;;14.87;13.63;;;9.80;99.90;;;;;;5089324;28;20482;-73
2023/02/20 17:55:43;;;;;;;12.73;11.90;;;9.70;99.90;;;;;;5089064;28;20463;-73
2023/02/20 17:58:10;;;;;;;12.73;12.00;;;9.70;99.90;;;;;;5088981;28;21105;-73
